Tipton, TN

4:22 PM CDT on September 02, 2014 (GMT -0500)
Millington Municipal | Change Station
CLOSE
Current Station
Airport
Location: Millington,
Elevation: 322 ft
Nearby Weather Stations

Elev 322 ft 35.36 °N, 89.87 °W | Updated 32 minutes ago

Overcast
Overcast
84 °F
Feels Like 94 °F
N
5
Wind Variable Wind from Variable

Today
High -- | Low -- °F
--% Chance of Precip.
Yesterday
High -- | Low -- °F
Precip. -- in
6:32 AM 7:24 PM
First Quarter, 55% visible
Pressure 29.93 in
Visibility 10.0 miles
Clouds Scattered Clouds 2300 ft
Scattered Clouds 4500 ft
Overcast 25000 ft
Heat Index 94 °F
Dew Point 77 °F
Humidity 79%
Rainfall 0.00 in
Snow Depth Not available.
UV 2 out of 12
Pollen 10.40 out of 12
Ozone Good
PM2.5 Moderate
Flu Activity Not available.
METAR KNQA 022050Z VRB04KT 10SM SCT023 SCT045 OVC250 29/25 A2993

More Conditions Fewer Conditions

Pressure 29.93 in
Visibility 10.0 miles
Clouds Scattered Clouds 2300 ft
Scattered Clouds 4500 ft
Overcast 25000 ft
Heat Index 94 °F
Dew Point 77 °F
Humidity 79%
Rainfall 0.00 in
Snow Depth Not available.
UV 2 out of 12
Pollen 10.40 out of 12
Ozone Good
PM2.5 Moderate
Flu Activity Not available.
METAR KNQA 022050Z VRB04KT 10SM SCT023 SCT045 OVC250 29/25 A2993

More Conditions Fewer Conditions

10-Day Weather Forecast

Almanac

Astronomy

Sep. 02, 2014 Rise Set
Actual Time 6:32 AM CDT 7:24 PM CDT
Civil Twilight 6:06 AM CDT 7:50 PM CDT
Nautical Twilight 5:35 AM CDT 8:21 PM CDT
Astronomical Twilight 5:03 AM CDT 8:52 PM CDT
Moon 2:01 PM CDT No Moon Set
Length of Visible Light 13h 44m
Length of Day
12h 52m
Tomorrow will be 2m 8s shorter.
First Quarter, 55% of the Moon is Illuminated
Today
First Quarter
Sep 8
Full
Sep 15
Last Quarter
Sep 24
New
Oct 1
First Quarter

Today's Extremes

State Highs State Lows

Community

WunderPhotos

Upload Photos

1,749,769 photos uploaded!

Nearby

Air Quality

  Air Quality AQ Index Pollutant
Yesterday Moderate
PM2.5
Yesterday Good
OZONE
Current Moderate
PM2.5
Current Good
OZONE
Tuesday Moderate
PM2.5
Tuesday Good
OZONE
Wednesday Moderate
PM2.5
Wednesday Good
OZONE

Snow Depth

Station Depth Elevation
No new snow has been reported.

Earthquake Activity

City Distance Mag. Time & Date
Tiptonville, Tennessee 68 miles 2.9 11:19 PM CDT
2014-08-31
Minimum magnitude displayed is 2.5.

Coastal Water Temperatures

Place Temperature
No Stations Reporting

Nearby Weather Stations